Time;durP1;ratioP1;P1;durP2;ratioP2;P2;SDS_P1;SDS_P2;PMS_P1;PMS_P2;Temp;Humidity;BMP_temperature;BMP_pressure;BME280_temperature;BME280_humidity;BME280_pressure;Samples;Min_cycle;Max_cycle;Signal;HPM_P1;HPM_P2
2024/03/29 01:45:21;;;;;;;3.70;2.63;;;;;;;8.02;64.78;98838.34;4963952;28;20055;-81
2024/03/29 01:47:56;;;;;;;;;;;;;;;8.01;64.69;98834.06;4974196;28;20051;-80
2024/03/29 01:50:22;;;;;;;7.43;2.45;;;;;;;7.98;65.36;98817.75;4965345;28;19989;-82
2024/03/29 01:52:57;;;;;;;4.05;2.05;;;;;;;7.97;65.19;98806.38;4981421;28;20051;-82
2024/03/29 01:55:27;;;;;;;4.82;2.13;;;;;;;7.96;65.35;98801.28;4968337;28;20079;-83
2024/03/29 01:57:59;;;;;;;3.47;2.15;;;;;;;7.88;65.79;98798.66;4976313;28;20134;-82
2024/03/29 02:00:27;;;;;;;4.83;1.97;;;;;;;7.82;66.06;98806.22;4980501;28;20058;-83
2024/03/29 02:02:55;;;;;;;7.60;2.20;;;;;;;7.84;66.69;98814.75;4980370;28;20313;-80
2024/03/29 02:05:26;;;;;;;5.00;2.28;;;;;;;7.79;67.39;98811.78;4978953;28;20050;-82
2024/03/29 02:07:57;;;;;;;7.55;2.25;;;;;;;7.83;66.16;98812.28;4979126;28;20058;-84
2024/03/29 02:10:26;;;;;;;3.78;1.88;;;;;;;7.87;66.13;98800.44;4975589;28;20174;-85
2024/03/29 02:12:59;;;;;;;5.28;2.10;;;;;;;7.93;66.36;98801.59;4985273;28;20391;-83
2024/03/29 02:15:45;;;;;;;3.25;1.70;;;;;;;7.94;66.10;98790.91;4979879;28;20114;-82
2024/03/29 02:18:48;;;;;;;3.25;2.15;;;;;;;7.98;66.18;98773.78;4986409;28;20058;-82
2024/03/29 02:33:28;;;;;;;4.53;1.92;;;;;;;8.13;65.82;98755.53;4987486;23;20039;-80
2024/03/29 02:39:15;;;;;;;4.53;1.75;;;;;;;8.21;65.84;98760.78;4998006;28;20069;-84
2024/03/29 02:41:51;;;;;;;4.60;2.10;;;;;;;8.22;66.52;98766.91;4997086;28;20114;-81
2024/03/29 02:51:03;;;;;;;6.30;2.20;;;;;;;8.19;65.68;98759.31;4957835;29;20067;-83
2024/03/29 02:57:23;;;;;;;9.30;2.55;;;;;;;8.13;66.65;98762.63;4958315;28;20057;-82
2024/03/29 02:59:59;;;;;;;6.95;2.10;;;;;;;8.06;67.02;98765.91;4994147;28;20106;-81
2024/03/29 03:02:29;;;;;;;3.28;2.10;;;;;;;8.13;65.96;98755.53;4967153;28;20078;-83
2024/03/29 03:05:22;;;;;;;3.80;2.05;;;;;;;8.11;65.70;98750.41;4983766;28;20142;-83
2024/03/29 03:11:30;;;;;;;3.75;1.88;;;;;;;8.19;65.65;98757.50;4978547;28;20062;-83
2024/03/29 03:18:11;;;;;;;3.30;2.13;;;;;;;8.21;65.59;98760.78;4982572;28;20161;-83
2024/03/29 03:26:20;;;;;;;3.72;2.30;;;;;;;8.09;65.99;98736.59;5020154;28;20054;-83
2024/03/29 03:29:31;;;;;;;5.97;2.05;;;;;;;8.03;66.08;98728.50;5026404;28;20046;-81
2024/03/29 03:31:54;;;;;;;6.03;2.70;;;;;;;8.02;66.73;98726.88;5012406;28;20092;-83
2024/03/29 03:34:25;;;;;;;3.13;1.77;;;;;;;8.00;66.93;98724.41;5025201;28;20057;-83
2024/03/29 03:36:52;;;;;;;4.47;2.20;;;;;;;7.92;67.28;98732.31;5020172;23;20097;-80
2024/03/29 03:39:19;;;;;;;5.03;2.10;;;;;;;7.91;67.97;98728.03;4996271;28;20074;-79
2024/03/29 03:41:50;;;;;;;5.57;2.65;;;;;;;7.87;67.76;98736.44;4997083;28;20338;-79
2024/03/29 03:44:16;;;;;;;5.85;2.47;;;;;;;7.80;68.05;98736.25;4998146;28;20133;-77
2024/03/29 03:46:42;;;;;;;7.18;2.33;;;;;;;7.78;68.62;98738.22;4985705;28;20536;-77
2024/03/29 03:49:08;;;;;;;2.92;2.13;;;;;;;7.74;70.03;98755.34;4977935;28;20046;-79
2024/03/29 03:51:35;;;;;;;5.50;2.42;;;;;;;7.74;70.10;98743.00;4976837;28;20059;-79
2024/03/29 03:54:02;;;;;;;3.78;2.03;;;;;;;7.76;70.35;98737.56;4978374;28;20051;-79
2024/03/29 03:56:30;;;;;;;5.13;2.00;;;;;;;7.71;70.65;98748.56;4979601;28;20051;-78
2024/03/29 03:58:56;;;;;;;3.80;2.28;;;;;;;7.64;70.75;98754.66;4978415;28;20093;-79
2024/03/29 04:01:24;;;;;;;5.95;2.53;;;;;;;7.66;70.90;98756.13;4975409;28;20493;-79
2024/03/29 04:03:50;;;;;;;3.50;2.20;;;;;;;7.70;70.71;98757.47;4977175;28;20134;-80
2024/03/29 04:06:16;;;;;;;5.75;2.70;;;;;;;7.75;69.80;98754.34;4978304;28;20081;-80
2024/03/29 04:08:43;;;;;;;5.93;2.50;;;;;;;7.76;69.58;98750.72;4978958;28;20061;-80
2024/03/29 04:11:10;;;;;;;4.63;2.88;;;;;;;7.83;69.68;98746.47;4975121;28;20054;-79
2024/03/29 04:13:38;;;;;;;5.47;2.55;;;;;;;7.84;69.44;98740.19;4978718;28;20047;-79
2024/03/29 04:16:07;;;;;;;4.07;2.53;;;;;;;7.90;68.30;98731.63;4976134;28;20114;-80
2024/03/29 04:18:32;;;;;;;4.07;2.28;;;;;;;7.94;67.94;98722.41;4979134;28;20153;-79
2024/03/29 04:20:59;;;;;;;5.65;2.65;;;;;;;7.98;67.56;98718.47;4978187;28;20078;-80
2024/03/29 04:23:28;;;;;;;5.72;2.72;;;;;;;8.02;67.83;98701.34;4978130;28;20082;-80
2024/03/29 04:25:55;;;;;;;6.53;2.60;;;;;;;8.05;68.05;98711.56;4976591;28;20078;-80
2024/03/29 04:28:21;;;;;;;4.15;2.20;;;;;;;8.02;68.45;98703.97;4980357;28;20520;-80
2024/03/29 04:30:56;;;;;;;5.22;2.40;;;;;;;8.01;68.41;98723.41;4980077;28;20105;-81
2024/03/29 04:33:22;;;;;;;6.95;2.35;;;;;;;7.97;69.93;98722.09;4966285;28;20115;-80
2024/03/29 04:35:54;;;;;;;6.90;2.85;;;;;;;7.92;71.09;98721.78;4978924;28;20498;-81
2024/03/29 04:38:21;;;;;;;;;;;;;;;7.97;71.07;98718.66;4979480;28;20054;-80
2024/03/29 04:40:48;;;;;;;4.85;2.35;;;;;;;7.97;70.82;98718.66;4970128;28;20391;-79
2024/03/29 04:43:14;;;;;;;5.00;2.30;;;;;;;7.91;70.76;98714.88;4979026;28;20055;-82
2024/03/29 04:45:41;;;;;;;3.65;2.15;;;;;;;7.83;72.13;98704.31;4981959;28;20054;-79
2024/03/29 04:48:09;;;;;;;7.85;2.95;;;;;;;7.89;73.06;98701.03;4977850;28;20134;-80
2024/03/29 04:50:36;;;;;;;3.60;2.22;;;;;;;7.77;74.87;98711.06;4978731;28;20058;-80
2024/03/29 04:53:03;;;;;;;6.28;2.80;;;;;;;7.72;76.44;98712.53;4978947;28;20053;-80
2024/03/29 04:55:29;;;;;;;8.50;2.90;;;;;;;7.71;74.97;98705.63;4978926;28;20046;-81
2024/03/29 04:57:56;;;;;;;4.88;2.65;;;;;;;7.62;74.68;98702.16;4979661;28;20114;-81
2024/03/29 05:00:22;;;;;;;6.25;3.10;;;;;;;7.53;75.59;98697.88;4972427;28;20548;-80
2024/03/29 05:02:49;;;;;;;4.18;2.78;;;;;;;7.56;76.12;98692.28;4979613;28;20153;-80
2024/03/29 05:05:17;;;;;;;5.97;2.75;;;;;;;7.51;75.56;98687.50;4979436;28;20130;-80
2024/03/29 05:07:44;;;;;;;4.00;2.38;;;;;;;7.49;76.70;98692.09;4979133;28;20145;-81
2024/03/29 05:10:10;;;;;;;4.13;2.65;;;;;;;7.47;76.55;98699.34;4977716;28;20131;-79
2024/03/29 05:12:37;;;;;;;4.28;2.50;;;;;;;7.45;77.92;98695.22;4978599;28;20121;-80
2024/03/29 05:15:05;;;;;;;5.68;2.88;;;;;;;7.43;79.07;98710.38;4979716;28;20053;-79
2024/03/29 05:17:32;;;;;;;7.63;2.97;;;;;;;7.46;77.46;98704.78;4978862;28;20134;-80
2024/03/29 05:19:58;;;;;;;4.80;2.70;;;;;;;7.45;78.61;98696.03;4978873;28;20046;-80
2024/03/29 05:22:26;;;;;;;8.85;2.67;;;;;;;7.43;79.31;98713.00;4976511;28;20505;-79
2024/03/29 05:24:54;;;;;;;5.20;2.58;;;;;;;7.38;79.26;98710.84;4974320;28;20086;-78
2024/03/29 05:27:20;;;;;;;6.65;3.03;;;;;;;7.42;77.46;98701.66;4978933;28;20063;-80
2024/03/29 05:29:47;;;;;;;5.05;3.22;;;;;;;7.42;77.81;98706.91;4974566;28;20098;-79
2024/03/29 05:32:14;;;;;;;7.53;3.40;;;;;;;7.42;77.74;98712.19;4977902;28;20070;-80
2024/03/29 05:34:41;;;;;;;6.47;3.20;;;;;;;7.40;78.88;98714.13;4978814;28;20089;-79
2024/03/29 05:37:08;;;;;;;5.35;2.95;;;;;;;7.39;79.62;98723.00;4979359;28;20062;-79
2024/03/29 05:39:36;;;;;;;12.25;3.60;;;;;;;7.35;78.82;98724.31;4973614;28;20057;-78
2024/03/29 05:42:02;;;;;;;8.60;2.97;;;;;;;7.35;79.03;98711.16;4976178;28;20050;-79
2024/03/29 05:44:29;;;;;;;7.97;3.50;;;;;;;7.34;79.61;98701.63;4975708;28;20137;-79
2024/03/29 05:46:55;;;;;;;8.00;3.35;;;;;;;7.33;79.85;98697.34;4976882;28;20489;-79
2024/03/29 05:49:28;;;;;;;7.68;2.92;;;;;;;7.29;80.65;98682.88;4976546;28;20141;-79
2024/03/29 05:51:55;;;;;;;5.43;3.00;;;;;;;7.26;81.31;98696.34;4977395;28;20047;-79
2024/03/29 05:54:22;;;;;;;6.45;3.10;;;;;;;7.25;81.13;98689.44;4977642;28;20055;-79
2024/03/29 05:56:50;;;;;;;7.43;3.05;;;;;;;7.28;80.97;98686.50;4977347;28;20058;-80
2024/03/29 05:59:17;;;;;;;5.60;2.78;;;;;;;7.30;80.70;98685.34;4976605;28;20136;-79
2024/03/29 06:01:43;;;;;;;8.32;3.25;;;;;;;7.33;80.65;98687.66;4978079;28;20050;-80
2024/03/29 06:04:15;;;;;;;7.25;3.03;;;;;;;7.37;81.07;98682.91;4978332;28;20047;-81
2024/03/29 06:06:42;;;;;;;3.83;2.58;;;;;;;7.48;79.99;98677.31;4979785;28;20490;-80
2024/03/29 06:09:10;;;;;;;5.22;2.92;;;;;;;7.53;80.24;98671.56;4971986;28;20401;-79
2024/03/29 06:11:38;;;;;;;5.30;2.85;;;;;;;7.60;80.11;98693.63;4976779;28;20047;-79
2024/03/29 06:19:35;;;;;;;7.95;3.03;;;;;;;7.71;80.59;98709.06;4970540;28;20066;-79
2024/03/29 06:22:01;;;;;;;3.90;2.70;;;;;;;7.74;81.02;98710.56;4976935;28;20343;-79
2024/03/29 06:24:28;;;;;;;4.88;3.10;;;;;;;7.82;80.67;98703.50;4972170;28;20187;-78
2024/03/29 06:26:54;;;;;;;5.45;2.90;;;;;;;7.93;81.33;98709.44;4971666;28;20050;-77
2024/03/29 06:29:22;;;;;;;4.65;2.83;;;;;;;7.98;80.77;98704.47;4973907;28;20122;-77
2024/03/29 06:31:49;;;;;;;9.23;4.82;;;;;;;8.00;80.56;98698.06;4975798;28;20158;-79
2024/03/29 06:34:16;;;;;;;8.05;5.43;;;;;;;8.06;81.27;98705.31;4971216;28;20082;-79
2024/03/29 06:36:42;;;;;;;6.30;3.05;;;;;;;8.17;80.26;98709.44;4972997;28;20574;-79
2024/03/29 06:39:10;;;;;;;5.25;2.80;;;;;;;8.19;80.37;98707.44;4976352;28;20082;-79
2024/03/29 06:41:36;;;;;;;8.63;6.40;;;;;;;8.19;80.49;98704.81;4973283;28;20166;-79
2024/03/29 06:44:03;;;;;;;6.15;3.97;;;;;;;8.25;81.19;98708.56;4974974;28;20054;-79
2024/03/29 06:46:34;;;;;;;6.78;5.80;;;;;;;8.29;81.45;98715.16;4975223;28;20083;-79
2024/03/29 06:49:00;;;;;;;7.93;5.15;;;;;;;8.38;81.52;98722.09;4976632;28;20054;-79
2024/03/29 06:51:27;;;;;;;9.02;3.50;;;;;;;8.49;81.59;98720.94;4976635;28;20113;-79
2024/03/29 06:53:54;;;;;;;4.93;3.00;;;;;;;8.67;80.18;98707.56;4976325;28;20062;-79
2024/03/29 06:56:20;;;;;;;5.80;3.13;;;;;;;8.75;79.89;98712.78;4976723;28;20055;-79
2024/03/29 06:58:47;;;;;;;6.72;3.33;;;;;;;8.85;79.78;98701.06;4980399;28;20482;-80
2024/03/29 07:01:14;;;;;;;5.70;3.47;;;;;;;8.96;80.15;98712.22;4979798;28;20059;-80
2024/03/29 07:03:42;;;;;;;4.43;2.72;;;;;;;9.06;80.06;98718.97;4980724;28;20401;-79
2024/03/29 07:06:09;;;;;;;7.00;4.80;;;;;;;9.03;79.94;98708.75;4978037;28;20062;-79
2024/03/29 07:08:36;;;;;;;7.60;3.38;;;;;;;9.10;80.26;98708.84;4980883;28;20159;-80
2024/03/29 07:11:04;;;;;;;4.47;2.90;;;;;;;9.08;80.14;98716.13;4981105;28;20050;-78
2024/03/29 07:13:31;;;;;;;4.05;3.42;;;;;;;9.05;80.95;98713.84;4981237;28;20074;-80
2024/03/29 07:15:58;;;;;;;10.88;5.15;;;;;;;9.17;79.92;98712.47;4978270;28;20035;-79
2024/03/29 07:18:25;;;;;;;8.75;4.40;;;;;;;9.30;80.20;98719.81;4981163;28;20051;-79
2024/03/29 07:20:53;;;;;;;9.05;5.78;;;;;;;9.48;79.83;98709.81;4979097;28;20063;-79
2024/03/29 07:23:20;;;;;;;7.00;4.75;;;;;;;9.56;80.63;98715.06;4978611;28;20089;-78
2024/03/29 07:25:58;;;;;;;7.97;5.55;;;;;;;9.68;79.56;98718.09;4976710;28;20102;-78
2024/03/29 07:28:25;;;;;;;9.63;8.23;;;;;;;9.74;79.50;98721.88;4977863;28;20094;-78
2024/03/29 07:30:53;;;;;;;11.15;7.80;;;;;;;9.93;79.03;98710.84;4975224;28;20081;-77
2024/03/29 07:33:21;;;;;;;6.15;4.85;;;;;;;10.12;78.97;98728.84;4978382;28;20054;-78
2024/03/29 07:35:47;;;;;;;6.78;4.60;;;;;;;10.21;78.28;98728.78;4977685;28;20047;-79
2024/03/29 07:38:17;;;;;;;4.90;3.13;;;;;;;10.25;78.32;98732.72;4979306;28;20082;-79
2024/03/29 07:40:43;;;;;;;3.90;2.40;;;;;;;10.32;77.70;98741.59;4979897;28;20568;-79
2024/03/29 07:43:13;;;;;;;3.35;2.63;;;;;;;10.30;78.71;98743.59;4981695;28;20062;-79
2024/03/29 07:45:40;;;;;;;5.78;3.03;;;;;;;10.43;77.93;98732.41;4975643;28;20070;-79
2024/03/29 07:48:08;;;;;;;5.75;4.35;;;;;;;10.49;78.11;98735.16;4974925;28;20145;-78
2024/03/29 07:50:34;;;;;;;4.65;3.28;;;;;;;10.52;78.56;98732.13;4979803;28;20054;-80
2024/03/29 07:53:01;;;;;;;4.97;3.03;;;;;;;10.56;78.03;98732.59;4982483;28;20133;-80
2024/03/29 07:55:29;;;;;;;3.70;2.65;;;;;;;10.55;78.89;98726.50;4982893;28;20438;-80
2024/03/29 07:57:55;;;;;;;4.97;2.50;;;;;;;10.62;78.17;98727.41;4982268;28;20097;-80
2024/03/29 08:00:23;;;;;;;9.80;7.38;;;;;;;10.77;78.10;98731.91;4980868;28;20095;-79
2024/03/29 08:02:50;;;;;;;4.57;3.00;;;;;;;10.77;77.03;98738.00;4981410;28;20557;-77
2024/03/29 08:05:17;;;;;;;4.90;3.38;;;;;;;10.76;77.62;98732.88;4979924;28;20049;-77
2024/03/29 08:07:43;;;;;;;2.72;2.42;;;;;;;10.84;77.03;98741.56;4976470;28;20047;-77
2024/03/29 08:10:13;;;;;;;6.45;4.63;;;;;;;10.87;77.33;98741.19;4977400;28;20106;-78
2024/03/29 08:12:41;;;;;;;6.07;4.05;;;;;;;10.94;77.04;98746.59;4980992;28;20131;-78
2024/03/29 08:15:09;;;;;;;3.25;2.40;;;;;;;10.91;77.06;98757.53;4979923;28;20180;-78
2024/03/29 08:17:36;;;;;;;4.05;2.05;;;;;;;10.95;76.89;98758.81;4980781;28;20393;-77
2024/03/29 08:20:03;;;;;;;3.22;2.45;;;;;;;10.99;76.84;98748.69;4978788;28;20440;-78
2024/03/29 08:22:32;;;;;;;6.60;2.70;;;;;;;11.07;76.27;98745.94;4980664;28;20073;-78
2024/03/29 08:24:58;;;;;;;2.80;1.98;;;;;;;11.06;76.39;98739.00;4979341;28;20066;-78
2024/03/29 08:27:26;;;;;;;3.03;2.15;;;;;;;11.11;76.59;98728.66;4977039;28;20125;-79
2024/03/29 08:29:54;;;;;;;4.50;2.05;;;;;;;11.17;76.08;98732.44;4980339;28;20059;-79
2024/03/29 08:32:21;;;;;;;2.80;1.75;;;;;;;11.29;75.75;98738.88;4982178;28;20098;-80
2024/03/29 08:34:48;;;;;;;2.90;2.10;;;;;;;11.47;75.36;98741.13;4981792;28;20067;-79
2024/03/29 08:37:14;;;;;;;3.45;1.67;;;;;;;11.68;74.60;98740.34;4985664;28;20370;-79
2024/03/29 08:39:41;;;;;;;1.52;1.35;;;;;;;11.92;73.79;98734.72;4990840;28;20057;-79
2024/03/29 08:42:11;;;;;;;3.78;1.52;;;;;;;12.12;72.87;98730.41;4988390;28;20131;-80
2024/03/29 08:44:37;;;;;;;1.52;1.42;;;;;;;12.19;71.88;98729.63;4981961;28;20051;-80
2024/03/29 08:47:06;;;;;;;1.50;1.15;;;;;;;12.32;72.21;98735.88;4979847;28;20130;-80
2024/03/29 08:49:34;;;;;;;2.28;1.40;;;;;;;12.50;71.64;98747.84;4963316;28;20055;-77
2024/03/29 08:52:04;;;;;;;1.30;1.20;;;;;;;12.79;70.61;98762.75;4973475;28;20062;-76
2024/03/29 08:54:31;;;;;;;1.75;1.45;;;;;;;13.08;68.92;98757.22;4973101;28;20092;-77
2024/03/29 08:56:58;;;;;;;4.05;1.85;;;;;;;13.05;69.25;98757.59;4974944;28;20089;-77
2024/03/29 08:59:24;;;;;;;1.80;1.45;;;;;;;13.16;68.60;98758.88;4974178;28;20059;-77
2024/03/29 09:01:52;;;;;;;2.88;1.55;;;;;;;13.46;67.35;98764.75;4968260;28;20502;-77
2024/03/29 09:04:21;;;;;;;2.30;1.15;;;;;;;13.56;68.27;98775.84;4974649;28;20441;-77
2024/03/29 09:06:48;;;;;;;2.40;1.50;;;;;;;13.84;66.90;98785.53;4974610;28;20051;-77
2024/03/29 09:09:15;;;;;;;3.67;1.52;;;;;;;14.04;65.99;98785.59;4974513;28;20086;-76
2024/03/29 09:11:41;;;;;;;1.92;1.40;;;;;;;13.84;65.92;98773.06;4970346;28;20169;-76
2024/03/29 09:14:09;;;;;;;2.13;1.30;;;;;;;13.88;65.84;98774.31;4973728;28;20051;-77
2024/03/29 09:16:36;;;;;;;1.52;1.17;;;;;;;14.09;65.42;98767.19;4972735;28;20121;-77
2024/03/29 09:19:04;;;;;;;2.35;1.52;;;;;;;14.15;65.11;98758.38;4972594;28;20487;-77
2024/03/29 09:21:33;;;;;;;1.98;1.08;;;;;;;13.93;66.14;98754.25;4969651;28;20054;-77
2024/03/29 09:23:59;;;;;;;1.55;1.20;;;;;;;13.84;66.04;98757.13;4972696;28;20042;-77
2024/03/29 09:26:26;;;;;;;2.05;1.33;;;;;;;14.03;64.59;98766.16;4973138;28;20047;-76
2024/03/29 09:28:52;;;;;;;2.67;1.60;;;;;;;14.09;65.19;98762.66;4971192;28;20093;-77
2024/03/29 09:31:19;;;;;;;2.80;1.35;;;;;;;14.22;64.68;98766.38;4971859;28;20043;-76
2024/03/29 09:33:47;;;;;;;1.95;1.23;;;;;;;14.58;64.63;98756.16;4973352;28;20126;-77
2024/03/29 09:39:45;;;;;;;3.38;1.70;;;;;;;14.72;62.89;98756.97;4990900;28;20073;-81
2024/03/29 09:42:42;;;;;;;1.20;1.10;;;;;;;14.65;62.21;98764.16;4996721;28;20050;-80
2024/03/29 09:45:10;;;;;;;1.90;1.35;;;;;;;14.41;62.70;98771.69;4994856;28;20142;-79
2024/03/29 09:47:39;;;;;;;3.40;1.60;;;;;;;14.62;62.09;98761.91;4957648;28;20047;-76
2024/03/29 09:50:08;;;;;;;1.55;1.30;;;;;;;14.89;62.30;98762.69;4970957;28;20082;-82
2024/03/29 09:52:38;;;;;;;2.72;1.10;;;;;;;14.88;61.11;98763.72;4971866;28;20039;-79
2024/03/29 09:55:07;;;;;;;2.13;1.30;;;;;;;14.95;61.55;98761.84;4969820;28;20078;-81
2024/03/29 09:57:33;;;;;;;4.63;1.35;;;;;;;15.07;60.66;98775.34;4972139;28;20074;-82
2024/03/29 10:00:00;;;;;;;5.78;1.88;;;;;;;14.99;60.78;98779.06;4972428;28;20130;-79
2024/03/29 10:02:31;;;;;;;3.13;1.65;;;;;;;14.99;61.58;98778.22;4971837;28;20114;-76
2024/03/29 10:05:02;;;;;;;2.25;1.30;;;;;;;14.97;61.31;98783.78;4970537;28;20082;-81
2024/03/29 10:07:29;;;;;;;3.00;1.33;;;;;;;14.82;60.44;98797.34;4973548;28;20056;-76
2024/03/29 10:09:58;;;;;;;2.35;1.30;;;;;;;14.87;61.02;98794.88;4972513;28;20139;-79
2024/03/29 10:12:25;;;;;;;1.50;1.10;;;;;;;15.02;59.88;98791.16;4972293;28;20055;-77
2024/03/29 10:14:54;;;;;;;1.25;1.15;;;;;;;15.23;59.76;98795.41;4972412;28;20146;-82
2024/03/29 10:17:22;;;;;;;2.33;1.20;;;;;;;15.12;59.40;98787.00;4972318;28;20108;-79
2024/03/29 10:19:48;;;;;;;1.38;1.27;;;;;;;15.05;59.46;98788.91;4972584;28;20112;-79
2024/03/29 10:22:16;;;;;;;2.17;1.38;;;;;;;15.13;58.84;98793.16;4974654;28;20101;-79
2024/03/29 10:24:43;;;;;;;3.88;1.77;;;;;;;15.06;59.29;98798.53;4975579;28;20061;-78
2024/03/29 10:27:11;;;;;;;2.05;1.35;;;;;;;15.31;59.11;98798.66;4975994;28;20057;-79
2024/03/29 10:29:37;;;;;;;2.17;1.10;;;;;;;15.37;58.08;98789.00;4974436;28;20055;-80
2024/03/29 10:32:04;;;;;;;2.88;1.40;;;;;;;15.38;57.82;98802.13;4979471;28;20190;-79
2024/03/29 10:34:33;;;;;;;4.13;1.95;;;;;;;15.45;57.83;98799.44;4979301;28;20097;-79
2024/03/29 10:37:02;;;;;;;1.88;1.08;;;;;;;15.31;57.65;98801.34;4978986;28;20074;-77
2024/03/29 10:39:30;;;;;;;1.73;1.27;;;;;;;15.22;58.31;98801.75;4978443;28;20113;-79
2024/03/29 10:41:58;;;;;;;2.00;1.33;;;;;;;15.09;57.71;98798.09;4977827;28;20097;-77
2024/03/29 10:44:27;;;;;;;1.88;1.45;;;;;;;15.09;58.76;98790.13;4969209;28;20054;-76
2024/03/29 10:46:56;;;;;;;5.10;1.33;;;;;;;15.05;58.57;98788.91;4977645;28;20458;-79
2024/03/29 10:49:24;;;;;;;3.63;1.50;;;;;;;14.95;59.33;98799.13;4969791;28;20116;-82
2024/03/29 10:51:52;;;;;;;2.83;1.13;;;;;;;14.94;58.44;98794.03;4978108;28;20137;-78
2024/03/29 10:54:20;;;;;;;1.20;1.02;;;;;;;15.20;58.63;98801.16;4978520;28;20134;-79
2024/03/29 10:56:53;;;;;;;1.42;0.95;;;;;;;15.41;58.12;98795.56;4981000;28;20098;-79
2024/03/29 10:59:23;;;;;;;1.38;1.08;;;;;;;15.37;58.62;98803.16;4979792;28;20078;-77
2024/03/29 11:01:57;;;;;;;3.90;1.92;;;;;;;15.42;58.03;98794.53;4977862;28;20122;-81
2024/03/29 11:04:27;;;;;;;1.85;1.60;;;;;;;15.57;57.46;98805.72;4982360;28;20077;-78
2024/03/29 11:06:58;;;;;;;2.85;1.17;;;;;;;15.46;56.78;98786.94;4980963;28;20082;-76
2024/03/29 11:09:29;;;;;;;2.10;1.40;;;;;;;15.56;56.33;98793.44;4976335;28;20134;-79
2024/03/29 11:11:57;;;;;;;3.17;1.48;;;;;;;15.57;54.12;98789.72;4975212;28;20046;-78
2024/03/29 11:14:29;;;;;;;0.88;0.82;;;;;;;15.65;54.57;98802.06;4974984;28;20141;-76
2024/03/29 11:16:58;;;;;;;8.75;1.55;;;;;;;15.66;54.59;98801.00;4975290;28;20125;-78
2024/03/29 11:19:25;;;;;;;4.30;1.50;;;;;;;15.57;54.64;98799.59;4976652;28;20050;-82
2024/03/29 11:21:53;;;;;;;2.22;1.20;;;;;;;15.75;54.56;98812.25;4987763;28;20078;-79
2024/03/29 11:24:20;;;;;;;1.42;1.00;;;;;;;15.83;52.91;98822.69;4990376;28;20090;-81
2024/03/29 11:26:46;;;;;;;3.20;1.58;;;;;;;15.87;53.88;98827.38;4986030;28;20460;-77
2024/03/29 11:29:20;;;;;;;3.00;1.10;;;;;;;15.74;53.74;98822.09;4975059;28;20112;-78
2024/03/29 11:31:47;;;;;;;2.00;1.20;;;;;;;15.64;53.64;98827.91;4974907;28;20074;-78
2024/03/29 11:34:15;;;;;;;1.52;1.00;;;;;;;15.68;54.27;98830.97;4974422;28;20105;-79
2024/03/29 11:36:41;;;;;;;1.52;1.08;;;;;;;15.65;53.91;98834.06;4974150;28;20058;-80
2024/03/29 11:39:08;;;;;;;1.50;1.10;;;;;;;15.67;53.62;98840.00;4973792;28;20066;-78
2024/03/29 11:41:35;;;;;;;2.67;1.23;;;;;;;15.73;52.76;98841.00;4975137;28;20472;-78
2024/03/29 11:44:02;;;;;;;3.13;1.42;;;;;;;15.71;53.60;98832.38;4974100;28;20139;-79
2024/03/29 11:46:33;;;;;;;2.05;1.58;;;;;;;15.86;54.23;98836.44;4974570;28;20051;-78
2024/03/29 11:49:00;;;;;;;2.05;1.13;;;;;;;16.10;53.13;98821.50;4974556;28;20055;-78
2024/03/29 11:51:28;;;;;;;3.45;1.90;;;;;;;16.24;51.17;98832.94;4974739;28;20050;-78
2024/03/29 11:53:55;;;;;;;2.35;1.63;;;;;;;16.28;51.48;98841.31;4978739;28;20126;-77
2024/03/29 11:56:21;;;;;;;2.50;1.23;;;;;;;16.28;50.99;98849.34;4982719;28;20085;-79
2024/03/29 11:58:49;;;;;;;1.83;1.30;;;;;;;15.99;51.67;98856.91;4982312;28;20363;-78
2024/03/29 12:01:16;;;;;;;4.70;1.35;;;;;;;15.99;52.33;98859.56;4981395;28;20182;-79
2024/03/29 12:03:44;;;;;;;1.33;0.93;;;;;;;16.04;51.14;98881.09;4975254;28;20054;-79
2024/03/29 12:06:11;;;;;;;2.53;1.55;;;;;;;16.03;50.64;98881.28;4974284;28;20051;-80
2024/03/29 12:08:42;;;;;;;1.33;1.05;;;;;;;16.00;51.35;98869.19;4974135;28;20085;-76
2024/03/29 12:11:09;;;;;;;2.58;1.13;;;;;;;15.64;52.90;98875.09;4973766;28;20130;-77
2024/03/29 12:13:36;;;;;;;1.42;1.20;;;;;;;15.56;52.36;98894.75;4974085;28;20086;-78
2024/03/29 12:16:04;;;;;;;1.08;0.90;;;;;;;15.47;52.77;98901.34;4973459;28;20054;-77
2024/03/29 12:18:31;;;;;;;1.08;0.95;;;;;;;15.39;52.94;98921.03;4973667;28;20054;-77
2024/03/29 12:20:58;;;;;;;2.33;1.60;;;;;;;15.35;52.59;98932.31;4973827;28;20087;-78
2024/03/29 12:23:25;;;;;;;1.92;1.20;;;;;;;15.26;52.66;98914.91;4973449;28;20142;-79
2024/03/29 12:25:57;;;;;;;1.00;0.80;;;;;;;15.32;52.77;98919.44;4973348;28;20138;-79
2024/03/29 12:28:24;;;;;;;0.63;0.57;;;;;;;15.30;51.09;98906.28;4957614;28;20100;-79
2024/03/29 12:30:51;;;;;;;0.43;0.43;;;;;;;15.41;51.05;98919.00;4973334;28;20389;-78
2024/03/29 12:33:20;;;;;;;0.73;0.40;;;;;;;15.54;51.76;98909.34;4973175;28;20113;-78
2024/03/29 12:35:49;;;;;;;1.90;0.45;;;;;;;15.58;50.74;98908.72;4972618;28;20047;-77
2024/03/29 12:38:17;;;;;;;2.30;1.10;;;;;;;15.65;51.02;98895.38;4972879;28;20065;-79
2024/03/29 12:40:47;;;;;;;0.70;0.70;;;;;;;15.48;50.16;98894.97;4972926;28;20137;-77
2024/03/29 12:43:20;;;;;;;2.92;1.05;;;;;;;15.46;49.94;98901.56;4973185;28;20130;-78
2024/03/29 12:45:46;;;;;;;;;;;;;;;15.35;51.77;98914.47;4973203;28;20537;-78
2024/03/29 12:48:15;;;;;;;1.40;0.70;;;;;;;15.30;52.48;98924.94;4973665;28;20391;-79
2024/03/29 12:50:43;;;;;;;2.05;0.90;;;;;;;15.20;52.80;98931.72;4973478;28;20086;-79
2024/03/29 12:53:11;;;;;;;1.38;0.75;;;;;;;15.32;52.64;98919.44;4972800;28;20093;-78
2024/03/29 12:55:41;;;;;;;0.95;0.80;;;;;;;15.36;53.15;98920.66;4973337;28;20130;-78
2024/03/29 12:58:10;;;;;;;1.48;1.00;;;;;;;15.39;53.32;98913.03;4974832;28;20137;-77
2024/03/29 13:00:39;;;;;;;2.13;0.88;;;;;;;15.49;53.41;98925.97;4973700;28;20078;-77
2024/03/29 13:03:06;;;;;;;0.40;0.40;;;;;;;15.49;53.23;98909.97;4973148;28;20438;-78
2024/03/29 13:05:35;;;;;;;0.60;0.60;;;;;;;15.57;53.37;98898.25;4973545;28;20126;-78
2024/03/29 13:08:02;;;;;;;0.70;0.70;;;;;;;15.58;53.37;98887.38;4972808;28;20050;-78
2024/03/29 13:10:29;;;;;;;0.60;0.50;;;;;;;15.65;53.23;98904.19;4972847;28;20295;-79
2024/03/29 13:12:56;;;;;;;0.57;0.45;;;;;;;15.87;52.92;98906.59;4973576;28;20093;-79
2024/03/29 13:15:24;;;;;;;2.83;0.50;;;;;;;16.18;53.02;98914.69;4972985;28;20133;-79
2024/03/29 13:17:54;;;;;;;2.03;0.50;;;;;;;16.40;51.73;98917.03;4973373;28;20050;-77
2024/03/29 13:20:21;;;;;;;0.77;0.70;;;;;;;16.60;51.36;98916.91;4972219;28;20081;-78
2024/03/29 13:22:49;;;;;;;0.93;0.60;;;;;;;16.84;49.87;98912.69;4972351;28;20196;-79
2024/03/29 13:25:17;;;;;;;0.50;0.50;;;;;;;16.91;49.43;98914.25;4973215;28;20057;-80
2024/03/29 13:27:45;;;;;;;0.70;0.70;;;;;;;16.91;49.67;98924.13;4973432;28;20105;-82
2024/03/29 13:30:14;;;;;;;1.00;0.90;;;;;;;16.77;48.91;98926.06;4973377;28;20129;-80
2024/03/29 13:32:41;;;;;;;1.80;0.85;;;;;;;16.76;48.59;98931.66;4973455;28;20077;-79
2024/03/29 13:35:10;;;;;;;1.10;0.65;;;;;;;16.88;48.21;98946.78;4973306;28;20082;-79
2024/03/29 13:37:38;;;;;;;1.35;0.85;;;;;;;16.83;48.03;98937.75;4972852;28;20051;-79
2024/03/29 13:40:07;;;;;;;0.98;0.88;;;;;;;16.78;47.14;98940.25;4973628;28;20472;-78
2024/03/29 13:42:33;;;;;;;0.65;0.65;;;;;;;16.74;47.80;98928.34;4972534;28;20054;-79
2024/03/29 13:45:00;;;;;;;0.75;0.63;;;;;;;16.91;47.85;98948.19;4971847;28;20458;-76
2024/03/29 13:47:27;;;;;;;2.08;0.75;;;;;;;17.05;47.69;98941.69;4973526;28;20200;-79
2024/03/29 13:49:55;;;;;;;0.90;0.75;;;;;;;17.02;47.26;98930.63;4973525;28;20134;-80
2024/03/29 13:52:23;;;;;;;5.22;3.55;;;;;;;16.67;48.10;98931.88;4973420;28;20058;-80
2024/03/29 13:54:50;;;;;;;4.15;2.55;;;;;;;16.76;49.02;98937.00;4973553;28;20054;-80
2024/03/29 13:57:17;;;;;;;0.55;0.55;;;;;;;16.89;48.70;98936.91;4973911;28;20133;-79
2024/03/29 13:59:45;;;;;;;0.80;0.70;;;;;;;16.88;47.54;98936.09;4973110;28;20082;-79
2024/03/29 14:02:13;;;;;;;0.63;0.40;;;;;;;16.84;47.85;98910.00;4973548;28;20059;-80
2024/03/29 14:04:39;;;;;;;0.80;0.75;;;;;;;16.65;48.29;98920.59;4972730;28;20500;-79
2024/03/29 14:07:08;;;;;;;2.70;0.93;;;;;;;16.52;48.90;98915.34;4975928;28;20502;-78
2024/03/29 14:09:36;;;;;;;1.25;0.82;;;;;;;16.40;48.65;98917.84;4975614;28;20445;-77
2024/03/29 14:12:04;;;;;;;3.38;0.75;;;;;;;16.17;50.68;98930.91;4976056;28;20051;-78
2024/03/29 14:14:33;;;;;;;1.08;0.60;;;;;;;16.29;51.55;98925.72;4975955;28;20051;-80